Time;durP1;ratioP1;P1;durP2;ratioP2;P2;SDS_P1;SDS_P2;PMS_P1;PMS_P2;Temp;Humidity;BMP_temperature;BMP_pressure;BME280_temperature;BME280_humidity;BME280_pressure;Samples;Min_cycle;Max_cycle;Signal;HPM_P1;HPM_P2
2021/04/28 00:01:44;;;;;;;;;;;5.30;67.70;;;;;;4987370;28;20065;-68
2021/04/28 00:04:19;;;;;;;6.57;2.47;;;5.30;67.80;;;;;;4998501;28;19944;-68
2021/04/28 00:07:02;;;;;;;5.72;2.38;;;5.20;67.90;;;;;;4998478;28;20261;-68
2021/04/28 00:09:37;;;;;;;2.22;1.30;;;5.20;68.30;;;;;;4999078;28;20054;-69
2021/04/28 00:12:06;;;;;;;8.90;2.60;;;5.30;67.90;;;;;;5001409;28;20162;-68
2021/04/28 00:14:33;;;;;;;5.28;2.50;;;5.20;68.30;;;;;;5007353;28;20058;-68
2021/04/28 00:17:00;;;;;;;8.23;2.38;;;5.20;68.50;;;;;;5000072;28;20120;-68
2021/04/28 00:19:30;;;;;;;7.63;1.98;;;5.30;68.60;;;;;;5001279;28;20069;-68
2021/04/28 00:21:57;;;;;;;2.78;1.30;;;5.20;68.60;;;;;;5001119;28;20104;-69
2021/04/28 00:24:24;;;;;;;3.92;1.42;;;5.20;68.30;;;;;;4994949;28;20061;-69
2021/04/28 00:26:51;;;;;;;5.50;2.35;;;5.20;68.20;;;;;;5001482;28;20062;-68
2021/04/28 00:29:19;;;;;;;4.22;1.85;;;5.20;68.90;;;;;;5004200;28;20046;-69
2021/04/28 00:31:46;;;;;;;7.40;2.42;;;5.20;68.20;;;;;;5005698;28;20109;-68
2021/04/28 00:34:13;;;;;;;5.25;3.05;;;5.20;68.30;;;;;;5002263;28;20054;-69
2021/04/28 00:36:41;;;;;;;5.47;2.55;;;5.20;68.40;;;;;;5004824;28;20077;-67
2021/04/28 00:39:07;;;;;;;2.55;1.40;;;5.20;68.80;;;;;;5005038;28;20133;-69
2021/04/28 00:41:36;;;;;;;3.63;1.63;;;5.10;68.30;;;;;;5005611;28;20049;-68
2021/04/28 00:44:03;;;;;;;4.13;1.65;;;5.00;69.00;;;;;;5003616;28;20109;-68
2021/04/28 00:46:30;;;;;;;4.35;1.55;;;4.90;69.10;;;;;;5012915;28;20145;-68
2021/04/28 00:48:57;;;;;;;4.75;1.67;;;4.80;69.30;;;;;;5019404;28;20105;-69
2021/04/28 00:51:25;;;;;;;5.30;2.17;;;4.80;69.70;;;;;;5024654;28;20046;-69
2021/04/28 00:53:53;;;;;;;4.35;1.73;;;4.80;69.00;;;;;;5023380;28;20192;-68
2021/04/28 00:56:21;;;;;;;4.10;2.17;;;4.80;70.00;;;;;;5022550;28;20742;-69
2021/04/28 00:58:48;;;;;;;4.63;2.78;;;4.70;70.40;;;;;;5021866;28;20054;-69
2021/04/28 01:01:15;;;;;;;4.03;1.70;;;4.70;70.10;;;;;;5018222;28;20049;-69
2021/04/28 01:03:44;;;;;;;6.57;1.92;;;4.60;70.60;;;;;;5039285;28;20049;-69
2021/04/28 01:06:11;;;;;;;4.82;1.80;;;4.60;70.70;;;;;;5012615;28;20046;-69
2021/04/28 01:08:41;;;;;;;3.47;1.70;;;4.50;70.60;;;;;;5019757;28;20057;-69
2021/04/28 01:11:13;;;;;;;9.77;1.70;;;4.40;70.80;;;;;;5021724;28;20065;-68
2021/04/28 01:13:57;;;;;;;3.35;1.55;;;4.40;71.10;;;;;;5020431;28;20179;-68
2021/04/28 01:16:24;;;;;;;4.60;1.83;;;4.30;71.30;;;;;;5020209;28;20046;-69
2021/04/28 01:18:54;;;;;;;5.95;1.65;;;4.20;71.70;;;;;;5021250;28;20045;-69
2021/04/28 01:21:22;;;;;;;2.25;1.10;;;4.20;71.70;;;;;;5020291;28;20355;-68
2021/04/28 01:23:51;;;;;;;5.22;2.00;;;4.30;71.70;;;;;;5012248;28;20300;-69
2021/04/28 01:26:20;;;;;;;3.22;1.60;;;4.30;72.00;;;;;;5019393;28;20109;-68
2021/04/28 01:28:49;;;;;;;5.43;2.45;;;4.20;71.80;;;;;;5017916;28;20053;-68
2021/04/28 01:31:20;;;;;;;4.10;1.58;;;4.20;72.10;;;;;;5019999;28;20052;-69
2021/04/28 01:33:52;;;;;;;6.22;2.38;;;4.20;72.30;;;;;;5021871;28;20742;-69
2021/04/28 01:36:21;;;;;;;3.75;2.15;;;4.20;72.10;;;;;;5017544;28;20046;-68
2021/04/28 01:38:53;;;;;;;3.78;2.13;;;4.20;72.50;;;;;;5019435;28;20100;-68
2021/04/28 01:41:25;;;;;;;4.47;2.40;;;4.20;72.30;;;;;;5015867;28;20893;-68
2021/04/28 01:43:56;;;;;;;5.50;2.08;;;4.20;72.70;;;;;;5020596;28;20046;-68
2021/04/28 01:46:25;;;;;;;5.07;2.03;;;4.20;72.80;;;;;;5020157;28;21031;-69
2021/04/28 01:48:54;;;;;;;3.97;1.92;;;4.10;72.90;;;;;;5021887;28;20069;-69
2021/04/28 01:51:32;;;;;;;3.65;1.77;;;4.10;72.30;;;;;;5019838;28;20912;-69
2021/04/28 01:54:08;;;;;;;4.60;2.15;;;4.10;72.80;;;;;;5019099;28;20072;-69
2021/04/28 01:56:47;;;;;;;3.63;2.17;;;4.00;73.00;;;;;;5022488;28;20344;-69
2021/04/28 01:59:31;;;;;;;3.42;1.67;;;4.00;73.20;;;;;;5021424;28;20491;-68
2021/04/28 02:02:19;;;;;;;5.18;1.77;;;4.00;73.10;;;;;;5018088;28;20073;-69
2021/04/28 02:04:47;;;;;;;4.50;1.65;;;3.90;72.90;;;;;;5022627;28;20065;-69
2021/04/28 02:07:17;;;;;;;2.88;1.35;;;3.90;73.00;;;;;;5016715;28;20075;-69
2021/04/28 02:09:45;;;;;;;5.57;1.50;;;3.90;72.80;;;;;;5010270;28;20077;-68
2021/04/28 02:12:19;;;;;;;3.28;1.55;;;3.80;73.10;;;;;;5021803;28;20109;-69
2021/04/28 02:14:51;;;;;;;4.60;2.00;;;3.70;73.60;;;;;;5023068;28;20073;-69
2021/04/28 02:17:28;;;;;;;3.17;1.25;;;3.60;73.90;;;;;;5020707;28;20533;-69
2021/04/28 02:19:59;;;;;;;5.22;1.38;;;3.70;73.60;;;;;;5019546;28;20121;-68
2021/04/28 02:22:29;;;;;;;5.28;2.35;;;3.60;74.00;;;;;;5021134;28;20333;-69
2021/04/28 02:25:23;;;;;;;3.60;1.75;;;3.70;73.60;;;;;;5022109;28;20480;-68
2021/04/28 02:28:04;;;;;;;5.10;1.63;;;3.70;73.90;;;;;;5021420;28;20424;-69
2021/04/28 02:30:33;;;;;;;5.95;2.55;;;3.70;74.00;;;;;;5021269;28;20279;-68
2021/04/28 02:33:02;;;;;;;5.68;1.60;;;3.70;74.10;;;;;;5020409;28;20277;-68
2021/04/28 02:35:59;;;;;;;4.05;2.00;;;3.70;74.60;;;;;;5025644;28;20054;-68
2021/04/28 02:38:51;;;;;;;4.53;2.25;;;3.70;74.80;;;;;;5022194;28;20045;-69
2021/04/28 02:41:33;;;;;;;6.07;2.17;;;3.80;74.80;;;;;;5020529;28;21229;-69
2021/04/28 02:44:05;;;;;;;6.28;2.40;;;3.80;75.00;;;;;;5037471;28;20062;-69
2021/04/28 02:46:39;;;;;;;6.20;2.63;;;3.90;74.90;;;;;;5021143;28;20064;-69
2021/04/28 02:49:08;;;;;;;6.68;3.05;;;3.90;74.70;;;;;;5020360;28;20149;-69
2021/04/28 02:51:36;;;;;;;5.20;2.72;;;3.90;74.50;;;;;;5022383;28;20045;-69
2021/04/28 02:54:12;;;;;;;7.95;3.20;;;3.90;74.60;;;;;;5037384;28;20053;-69
2021/04/28 02:56:42;;;;;;;6.82;2.50;;;3.90;74.50;;;;;;5022405;28;20053;-69
2021/04/28 02:59:10;;;;;;;4.20;2.03;;;3.90;74.70;;;;;;5021567;28;20081;-67
2021/04/28 03:01:40;;;;;;;8.27;2.80;;;3.90;74.50;;;;;;5015110;28;20164;-69
2021/04/28 03:04:08;;;;;;;5.63;2.47;;;3.90;74.60;;;;;;5035103;28;20166;-69
2021/04/28 03:07:11;;;;;;;3.95;2.25;;;3.80;74.60;;;;;;5021016;28;20080;-69
2021/04/28 03:09:40;;;;;;;5.63;2.92;;;3.80;74.60;;;;;;5019053;28;20395;-69
2021/04/28 03:12:16;;;;;;;4.78;2.35;;;3.80;75.10;;;;;;5035632;28;20064;-68
2021/04/28 03:14:52;;;;;;;5.03;2.15;;;3.80;75.10;;;;;;5018604;28;20057;-70
2021/04/28 03:17:21;;;;;;;5.28;2.40;;;3.80;75.20;;;;;;5018299;28;20798;-69
2021/04/28 03:19:50;;;;;;;5.70;3.58;;;3.70;75.20;;;;;;5020203;28;20046;-68
2021/04/28 03:22:19;;;;;;;5.65;2.55;;;3.70;75.40;;;;;;5019967;28;20057;-68
2021/04/28 03:24:47;;;;;;;7.55;2.28;;;3.70;75.50;;;;;;5018430;28;20060;-69
2021/04/28 03:27:16;;;;;;;6.43;2.70;;;3.70;75.50;;;;;;5019406;28;20056;-68
2021/04/28 03:29:54;;;;;;;6.05;2.30;;;3.70;75.40;;;;;;5019808;28;20042;-69
2021/04/28 03:32:21;;;;;;;4.55;2.83;;;3.70;75.60;;;;;;5019706;28;20405;-69
2021/04/28 03:34:56;;;;;;;5.32;2.53;;;3.60;76.00;;;;;;5000627;28;20066;-69
2021/04/28 03:37:23;;;;;;;8.95;3.55;;;3.60;76.20;;;;;;5020443;28;20048;-68
2021/04/28 03:39:51;;;;;;;5.57;2.17;;;3.50;76.10;;;;;;5017756;28;20064;-69
2021/04/28 03:42:19;;;;;;;5.28;2.25;;;3.50;75.90;;;;;;5019520;28;20387;-68
2021/04/28 03:44:47;;;;;;;4.20;2.65;;;3.40;75.90;;;;;;5018035;28;20096;-68
2021/04/28 03:47:15;;;;;;;5.03;2.47;;;3.40;76.60;;;;;;5017344;28;20053;-69
2021/04/28 03:49:47;;;;;;;5.00;2.22;;;3.30;76.40;;;;;;5020058;28;20070;-68
2021/04/28 03:52:14;;;;;;;5.53;2.80;;;3.20;76.50;;;;;;5021143;28;20103;-69
2021/04/28 03:55:12;;;;;;;5.50;2.17;;;3.20;76.60;;;;;;5015295;28;20058;-68
2021/04/28 03:57:42;;;;;;;5.90;2.72;;;3.20;76.60;;;;;;5020392;28;20057;-69
2021/04/28 04:00:11;;;;;;;6.10;2.63;;;3.10;76.70;;;;;;5017296;28;20046;-68
2021/04/28 04:02:54;;;;;;;5.78;2.88;;;3.10;76.70;;;;;;5020980;28;20113;-68
2021/04/28 04:05:39;;;;;;;4.53;2.13;;;3.10;76.60;;;;;;5019625;28;20276;-69
2021/04/28 04:08:25;;;;;;;5.35;2.72;;;3.20;76.60;;;;;;5035210;28;20650;-70
2021/04/28 04:10:52;;;;;;;4.75;2.47;;;3.30;75.90;;;;;;5020796;28;20054;-69
2021/04/28 04:13:20;;;;;;;5.80;2.60;;;3.40;75.60;;;;;;5019301;28;20449;-69
2021/04/28 04:15:47;;;;;;;5.43;2.35;;;3.40;75.60;;;;;;5021431;28;20066;-69
2021/04/28 04:18:14;;;;;;;6.00;2.20;;;3.30;76.10;;;;;;5019024;28;20053;-68
2021/04/28 04:20:47;;;;;;;5.85;2.30;;;3.40;76.00;;;;;;5017624;28;20065;-68
2021/04/28 04:23:28;;;;;;;10.30;2.60;;;3.40;76.00;;;;;;5018864;28;20395;-68
2021/04/28 04:26:22;;;;;;;5.22;3.00;;;3.50;75.80;;;;;;5020108;28;20237;-69
2021/04/28 04:29:03;;;;;;;5.40;2.90;;;3.50;76.00;;;;;;5019371;28;20161;-68
2021/04/28 04:31:40;;;;;;;9.13;2.92;;;3.50;75.90;;;;;;5002931;28;20064;-70
2021/04/28 04:34:26;;;;;;;7.28;3.50;;;3.40;75.90;;;;;;5019514;28;20516;-69
2021/04/28 04:37:11;;;;;;;10.82;2.33;;;3.40;76.30;;;;;;5019612;28;20045;-69
2021/04/28 04:39:47;;;;;;;7.72;3.00;;;3.50;76.00;;;;;;5018638;28;20064;-69
2021/04/28 04:42:25;;;;;;;6.72;2.30;;;3.50;76.20;;;;;;5035184;28;20046;-69
2021/04/28 04:45:01;;;;;;;6.82;3.28;;;3.60;76.00;;;;;;5019203;28;20058;-68
2021/04/28 04:47:30;;;;;;;9.85;2.67;;;3.70;75.50;;;;;;5019939;28;20053;-68
2021/04/28 04:49:58;;;;;;;6.25;2.72;;;3.70;75.50;;;;;;5018721;28;20058;-69
2021/04/28 04:52:25;;;;;;;9.73;2.88;;;3.70;75.80;;;;;;5018583;28;20218;-69
2021/04/28 04:54:52;;;;;;;9.57;3.30;;;3.70;76.00;;;;;;5017134;28;20121;-68
2021/04/28 04:57:19;;;;;;;5.78;3.63;;;3.70;76.50;;;;;;5018523;28;20118;-69
2021/04/28 04:59:48;;;;;;;8.55;3.35;;;3.70;76.10;;;;;;5018093;28;20053;-68
2021/04/28 05:02:16;;;;;;;12.20;3.53;;;3.90;75.70;;;;;;5014219;28;20050;-68
2021/04/28 05:04:43;;;;;;;6.75;3.20;;;4.00;75.20;;;;;;5018715;28;20054;-68
2021/04/28 05:07:10;;;;;;;6.57;3.45;;;4.10;74.60;;;;;;5018219;28;20057;-68
2021/04/28 05:09:36;;;;;;;7.35;3.05;;;4.20;74.20;;;;;;5018950;28;20065;-68
2021/04/28 05:12:04;;;;;;;6.45;3.15;;;4.30;73.60;;;;;;5017386;28;20050;-70
2021/04/28 05:14:31;;;;;;;29.00;3.67;;;4.40;73.40;;;;;;5017938;28;20317;-68
2021/04/28 05:16:58;;;;;;;6.70;2.72;;;4.40;73.40;;;;;;5021746;28;20068;-69
2021/04/28 05:19:26;;;;;;;5.60;2.88;;;4.40;73.10;;;;;;5021998;28;20053;-69
2021/04/28 05:21:52;;;;;;;9.90;3.85;;;4.50;72.70;;;;;;5021488;28;20252;-69
2021/04/28 05:24:20;;;;;;;6.50;3.08;;;4.60;72.30;;;;;;5011947;28;20525;-68
2021/04/28 05:27:06;;;;;;;8.57;3.13;;;4.70;71.80;;;;;;5021792;28;20166;-67
2021/04/28 05:29:33;;;;;;;6.60;2.97;;;4.70;71.60;;;;;;5022399;28;20050;-68
2021/04/28 05:32:00;;;;;;;9.02;3.83;;;4.80;71.30;;;;;;5020922;28;20222;-69
2021/04/28 05:34:31;;;;;;;6.07;3.08;;;4.90;71.20;;;;;;5021557;28;20052;-68
2021/04/28 05:36:58;;;;;;;7.15;3.00;;;4.90;70.80;;;;;;5022203;28;20053;-69
2021/04/28 05:39:24;;;;;;;6.05;3.38;;;5.00;70.70;;;;;;5021555;28;20069;-68
2021/04/28 05:41:52;;;;;;;7.18;3.75;;;5.10;70.50;;;;;;5023794;28;20049;-68
2021/04/28 05:44:19;;;;;;;9.80;3.20;;;5.10;70.60;;;;;;5023388;28;20061;-68
2021/04/28 05:46:46;;;;;;;7.28;3.25;;;5.20;70.20;;;;;;5023390;28;20053;-69
2021/04/28 05:49:14;;;;;;;9.18;3.38;;;5.30;70.10;;;;;;5022638;28;20081;-69
2021/04/28 05:51:42;;;;;;;10.60;3.63;;;5.40;70.00;;;;;;5024054;28;20053;-70
2021/04/28 05:54:09;;;;;;;5.65;2.97;;;5.50;69.70;;;;;;5021022;28;20371;-69
2021/04/28 05:56:38;;;;;;;6.95;2.95;;;5.60;69.70;;;;;;5023110;28;20042;-68
2021/04/28 05:59:14;;;;;;;6.53;3.20;;;5.70;69.20;;;;;;5023201;28;20050;-68
2021/04/28 06:01:41;;;;;;;9.73;3.33;;;5.80;68.90;;;;;;5018319;28;20057;-68
2021/04/28 06:04:08;;;;;;;7.45;3.67;;;5.90;68.50;;;;;;5020780;28;20057;-68
2021/04/28 06:06:35;;;;;;;8.20;3.78;;;6.10;67.50;;;;;;5022643;28;20065;-68
2021/04/28 06:09:03;;;;;;;6.70;2.97;;;6.20;67.20;;;;;;5022644;28;20392;-69
2021/04/28 06:11:30;;;;;;;9.73;3.53;;;6.30;66.80;;;;;;5022685;28;20061;-68
2021/04/28 06:13:57;;;;;;;5.78;2.92;;;6.40;66.40;;;;;;5022558;28;20214;-69
2021/04/28 06:16:25;;;;;;;6.68;3.15;;;6.60;65.70;;;;;;5022892;28;20038;-69
2021/04/28 06:18:52;;;;;;;9.07;3.25;;;6.70;65.50;;;;;;5022188;28;20049;-69
2021/04/28 06:21:19;;;;;;;4.60;2.70;;;6.80;64.90;;;;;;5022753;28;20065;-69
2021/04/28 06:23:46;;;;;;;7.03;3.35;;;7.00;64.60;;;;;;5023475;28;20057;-68
2021/04/28 06:26:14;;;;;;;8.85;3.25;;;7.10;64.10;;;;;;5021181;28;20068;-69
2021/04/28 06:28:42;;;;;;;6.38;3.28;;;7.30;63.70;;;;;;5022419;28;20069;-67
2021/04/28 06:31:09;;;;;;;5.75;3.03;;;7.40;63.00;;;;;;5022236;28;20057;-69
2021/04/28 06:33:36;;;;;;;4.78;3.47;;;7.60;62.50;;;;;;5023604;28;20371;-69
2021/04/28 06:36:06;;;;;;;13.15;3.95;;;7.70;61.80;;;;;;5022504;28;20049;-68
2021/04/28 06:38:33;;;;;;;5.28;3.03;;;7.90;61.50;;;;;;5022065;28;20049;-69
2021/04/28 06:41:00;;;;;;;11.18;4.47;;;8.10;61.00;;;;;;5020113;28;20057;-69
2021/04/28 06:43:30;;;;;;;6.97;3.10;;;8.20;60.70;;;;;;5020736;28;20201;-68
2021/04/28 06:45:57;;;;;;;7.80;2.95;;;8.40;60.10;;;;;;5019692;28;20113;-68
2021/04/28 06:48:24;;;;;;;7.45;3.15;;;8.50;59.70;;;;;;5021116;28;20092;-67
2021/04/28 06:50:52;;;;;;;13.73;4.45;;;8.70;59.10;;;;;;5020775;28;20133;-67
2021/04/28 06:53:19;;;;;;;5.95;3.33;;;8.70;59.50;;;;;;5019513;28;20042;-68
2021/04/28 06:55:46;;;;;;;9.57;3.35;;;8.90;58.90;;;;;;5020760;28;20149;-68
2021/04/28 06:58:13;;;;;;;8.40;3.30;;;9.10;58.30;;;;;;5021032;28;20046;-67
2021/04/28 07:00:40;;;;;;;7.82;3.70;;;9.20;58.00;;;;;;5017468;28;20050;-68
2021/04/28 07:03:07;;;;;;;13.45;3.63;;;9.30;57.10;;;;;;5020092;28;20122;-68
2021/04/28 07:05:34;;;;;;;6.60;3.78;;;9.40;57.40;;;;;;5020580;28;20233;-68
2021/04/28 07:08:05;;;;;;;7.80;3.03;;;9.70;56.80;;;;;;5019945;28;20367;-68
2021/04/28 07:10:32;;;;;;;8.45;3.67;;;9.90;55.70;;;;;;5021373;28;20522;-68
2021/04/28 07:12:59;;;;;;;10.40;3.35;;;10.00;55.80;;;;;;5019471;28;20045;-69
2021/04/28 07:15:26;;;;;;;11.20;3.75;;;10.20;55.00;;;;;;5020902;28;20066;-68
2021/04/28 07:17:53;;;;;;;7.60;3.08;;;10.30;53.70;;;;;;5021410;28;20060;-68
2021/04/28 07:20:20;;;;;;;11.05;3.65;;;10.50;53.00;;;;;;5018532;28;20434;-68
2021/04/28 07:22:47;;;;;;;8.65;2.97;;;10.60;53.20;;;;;;5020418;28;20061;-68
2021/04/28 07:25:15;;;;;;;8.02;3.55;;;10.70;52.40;;;;;;5019106;28;20120;-69
2021/04/28 07:27:43;;;;;;;5.82;2.38;;;11.00;51.40;;;;;;5021956;28;20233;-68
2021/04/28 07:30:11;;;;;;;9.43;3.58;;;11.10;50.20;;;;;;5021112;28;20056;-69
2021/04/28 07:32:40;;;;;;;8.50;3.40;;;11.20;50.10;;;;;;5021587;28;20433;-68
2021/04/28 07:35:09;;;;;;;11.93;3.35;;;11.30;49.20;;;;;;5021707;28;20368;-68
2021/04/28 07:37:36;;;;;;;8.60;3.87;;;11.40;48.60;;;;;;5020116;28;20076;-68
2021/04/28 07:40:10;;;;;;;7.63;3.55;;;11.40;49.10;;;;;;5022329;28;20072;-68
2021/04/28 07:42:37;;;;;;;8.00;3.13;;;11.60;48.50;;;;;;5021672;28;20134;-68
2021/04/28 07:45:08;;;;;;;5.75;3.03;;;11.70;48.10;;;;;;5021798;28;20054;-68
2021/04/28 07:47:35;;;;;;;9.32;3.55;;;11.90;47.20;;;;;;5020347;28;20076;-68
2021/04/28 07:50:05;;;;;;;7.97;3.70;;;12.20;46.40;;;;;;5021509;28;20045;-69
2021/04/28 07:52:33;;;;;;;10.60;3.72;;;12.40;47.20;;;;;;5020866;28;20045;-68
2021/04/28 07:55:00;;;;;;;9.93;3.88;;;12.60;47.10;;;;;;5019567;28;20672;-69
2021/04/28 07:57:29;;;;;;;9.30;3.85;;;12.70;46.10;;;;;;5019621;28;20348;-68
2021/04/28 07:59:57;;;;;;;9.30;3.50;;;12.90;45.30;;;;;;5020164;28;20049;-68
2021/04/28 08:02:24;;;;;;;7.68;3.78;;;13.00;44.80;;;;;;5018694;28;20071;-68
2021/04/28 08:04:51;;;;;;;8.65;3.38;;;13.10;44.90;;;;;;5020366;28;20143;-68
2021/04/28 08:07:18;;;;;;;9.02;3.30;;;13.20;44.00;;;;;;5021382;28;20065;-68
2021/04/28 08:09:46;;;;;;;7.60;3.67;;;13.30;44.50;;;;;;5022361;28;20101;-67
2021/04/28 08:12:14;;;;;;;8.40;3.35;;;13.50;44.10;;;;;;5021753;28;20060;-67
2021/04/28 08:14:41;;;;;;;6.85;3.53;;;13.70;44.90;;;;;;5022220;28;20046;-68
2021/04/28 08:17:12;;;;;;;7.82;3.13;;;13.80;43.90;;;;;;5022580;28;20060;-68
2021/04/28 08:19:39;;;;;;;6.95;3.60;;;13.80;43.60;;;;;;5021373;28;20072;-67
2021/04/28 08:22:06;;;;;;;7.53;3.40;;;13.90;43.30;;;;;;5021640;28;20057;-67
2021/04/28 08:24:33;;;;;;;8.52;3.95;;;14.00;43.80;;;;;;5022327;28;20160;-68
2021/04/28 08:27:01;;;;;;;10.32;3.50;;;14.10;43.20;;;;;;5020611;28;20052;-67
2021/04/28 08:29:28;;;;;;;8.07;3.80;;;14.30;43.10;;;;;;5020811;28;20041;-67
2021/04/28 08:31:55;;;;;;;7.20;3.70;;;14.40;42.50;;;;;;5019656;28;20052;-67
2021/04/28 08:34:22;;;;;;;8.50;3.00;;;14.50;42.70;;;;;;5020789;28;20042;-67
2021/04/28 08:36:49;;;;;;;9.07;3.90;;;14.60;42.50;;;;;;5020804;28;20273;-67
2021/04/28 08:39:16;;;;;;;7.72;3.60;;;14.70;42.70;;;;;;5020116;28;20037;-67
2021/04/28 08:41:46;;;;;;;7.95;3.85;;;15.00;42.90;;;;;;5021555;28;20068;-68
2021/04/28 08:44:14;;;;;;;5.90;3.42;;;15.10;42.00;;;;;;5020132;28;20062;-68
2021/04/28 08:46:42;;;;;;;5.82;3.00;;;15.20;41.70;;;;;;5021654;28;20339;-67
2021/04/28 08:49:09;;;;;;;9.50;4.07;;;15.30;42.00;;;;;;5018880;28;20336;-68
2021/04/28 08:51:38;;;;;;;7.05;3.47;;;15.50;41.70;;;;;;5023606;28;20053;-69
2021/04/28 08:54:05;;;;;;;7.60;3.63;;;15.60;41.00;;;;;;5024052;28;20058;-68
2021/04/28 08:56:33;;;;;;;9.32;3.83;;;15.80;41.50;;;;;;5018578;28;20057;-69
2021/04/28 08:59:04;;;;;;;7.38;3.75;;;15.90;40.70;;;;;;5023028;28;20069;-69
2021/04/28 09:01:33;;;;;;;8.82;3.67;;;15.90;40.30;;;;;;5015203;28;20045;-69
2021/04/28 09:04:01;;;;;;;7.63;3.63;;;16.10;40.10;;;;;;5022113;28;20119;-69
2021/04/28 09:06:32;;;;;;;7.93;3.77;;;16.20;40.00;;;;;;5021617;28;20049;-69
2021/04/28 09:09:05;;;;;;;6.43;3.45;;;16.40;40.10;;;;;;5021182;28;20319;-68
2021/04/28 09:11:44;;;;;;;5.75;3.15;;;16.60;39.30;;;;;;5020863;28;20054;-68
2021/04/28 09:14:13;;;;;;;8.80;3.65;;;16.70;39.20;;;;;;5022566;28;20058;-68
2021/04/28 09:16:45;;;;;;;7.78;2.80;;;16.70;38.90;;;;;;5014997;28;20054;-69
2021/04/28 09:19:36;;;;;;;6.82;3.70;;;16.90;38.30;;;;;;5020888;28;20457;-68
2021/04/28 09:22:22;;;;;;;7.70;3.42;;;16.90;37.70;;;;;;5025987;28;20054;-69
2021/04/28 09:25:39;;;;;;;6.03;3.03;;;17.00;37.80;;;;;;5013974;28;20417;-69
2021/04/28 09:28:52;;;;;;;6.32;3.08;;;17.20;37.80;;;;;;5002819;28;20364;-68
2021/04/28 09:31:19;;;;;;;9.73;3.03;;;17.40;37.70;;;;;;5022378;28;20049;-69
2021/04/28 09:33:54;;;;;;;6.20;2.97;;;17.30;36.50;;;;;;5025268;28;20046;-70
2021/04/28 09:36:27;;;;;;;5.72;2.85;;;17.60;36.80;;;;;;5023823;28;20092;-69
2021/04/28 09:38:56;;;;;;;7.15;3.33;;;17.80;36.10;;;;;;5017244;28;20050;-68
2021/04/28 09:41:34;;;;;;;6.82;3.03;;;18.00;35.10;;;;;;5013077;28;20395;-69
2021/04/28 09:44:05;;;;;;;6.38;3.05;;;18.10;34.60;;;;;;5021288;28;20052;-69
2021/04/28 09:46:33;;;;;;;8.63;3.03;;;18.30;35.20;;;;;;5015788;28;20124;-68
2021/04/28 09:49:06;;;;;;;6.65;3.22;;;18.80;34.80;;;;;;5015267;28;20399;-68
2021/04/28 09:51:36;;;;;;;7.15;3.35;;;19.00;32.90;;;;;;5016531;28;20049;-69
2021/04/28 09:54:11;;;;;;;7.97;3.38;;;19.00;33.20;;;;;;5015597;28;20161;-68
2021/04/28 09:56:39;;;;;;;6.80;3.53;;;19.50;32.40;;;;;;5018268;28;20234;-67
2021/04/28 09:59:06;;;;;;;8.45;3.40;;;19.50;31.80;;;;;;5003108;28;20057;-67
2021/04/28 10:01:34;;;;;;;6.47;2.72;;;20.10;31.70;;;;;;5013388;28;20045;-69
2021/04/28 10:04:07;;;;;;;8.63;3.30;;;20.70;30.50;;;;;;5015608;28;20052;-69
2021/04/28 10:06:46;;;;;;;11.85;3.80;;;21.20;29.60;;;;;;5014762;28;20056;-67
2021/04/28 10:09:33;;;;;;;11.30;4.45;;;22.00;27.90;;;;;;5016533;28;20045;-69
2021/04/28 10:12:12;;;;;;;8.32;3.22;;;22.70;26.80;;;;;;5013576;28;20041;-69
2021/04/28 10:14:40;;;;;;;8.80;3.67;;;23.30;26.00;;;;;;5015516;28;20111;-69
2021/04/28 10:17:08;;;;;;;9.95;4.40;;;23.60;25.70;;;;;;5011375;28;20076;-69
2021/04/28 10:19:37;;;;;;;8.23;3.85;;;24.40;24.20;;;;;;5011224;28;20054;-68
2021/04/28 10:22:05;;;;;;;8.00;3.77;;;24.10;23.60;;;;;;5015098;28;20080;-69
2021/04/28 10:24:33;;;;;;;10.00;3.58;;;24.40;23.60;;;;;;5016571;28;20066;-69
2021/04/28 10:27:00;;;;;;;10.02;4.80;;;24.10;23.70;;;;;;5015982;28;20046;-68
2021/04/28 10:29:33;;;;;;;9.52;4.05;;;25.20;22.50;;;;;;5011601;28;20286;-70
2021/04/28 10:32:01;;;;;;;8.60;3.80;;;25.10;22.90;;;;;;5013755;28;20054;-69
2021/04/28 10:34:33;;;;;;;11.65;4.05;;;25.30;22.00;;;;;;5017175;28;20061;-69
2021/04/28 10:37:08;;;;;;;8.55;3.95;;;26.00;21.90;;;;;;5016931;28;20432;-69
2021/04/28 10:39:37;;;;;;;7.05;3.78;;;25.90;21.20;;;;;;5002874;23;20415;-83
2021/04/28 10:42:24;;;;;;;10.00;4.28;;;25.90;22.00;;;;;;5019030;28;20041;-82
2021/04/28 10:44:51;;;;;;;8.98;3.83;;;25.80;21.70;;;;;;5038562;28;20455;-82
2021/04/28 10:47:35;;;;;;;23.35;4.95;;;26.60;21.90;;;;;;5013993;28;20539;-81
2021/04/28 10:50:22;;;;;;;8.50;4.00;;;26.30;20.00;;;;;;5004614;28;20129;-82
2021/04/28 10:52:56;;;;;;;8.57;4.22;;;26.00;21.20;;;;;;5019331;28;20236;-86
2021/04/28 10:55:42;;;;;;;8.65;4.15;;;26.10;21.40;;;;;;5023327;28;20306;-83
2021/04/28 10:58:37;;;;;;;6.55;2.95;;;26.50;20.80;;;;;;5018077;28;20058;-86
2021/04/28 11:01:28;;;;;;;7.47;3.50;;;28.20;20.50;;;;;;5019287;28;20065;-83
2021/04/28 11:03:55;;;;;;;9.93;4.00;;;28.10;19.30;;;;;;5039948;28;20054;-84
2021/04/28 11:06:33;;;;;;;7.93;4.32;;;28.30;19.40;;;;;;5022507;28;20046;-83
2021/04/28 11:09:18;;;;;;;10.25;4.05;;;28.50;19.50;;;;;;5014638;28;20049;-82
2021/04/28 11:11:59;;;;;;;9.50;4.20;;;28.00;18.50;;;;;;5025446;28;20343;-83
2021/04/28 11:14:29;;;;;;;7.13;4.00;;;27.40;18.70;;;;;;5014371;28;20045;-84
2021/04/28 11:16:58;;;;;;;6.78;3.78;;;27.70;19.00;;;;;;5005027;28;20096;-83
2021/04/28 11:19:27;;;;;;;9.00;4.47;;;26.70;19.10;;;;;;5019683;28;20554;-84
2021/04/28 11:22:16;;;;;;;10.68;4.95;;;23.90;22.00;;;;;;5023697;28;20229;-83
2021/04/28 11:25:07;;;;;;;8.10;3.87;;;23.50;22.30;;;;;;5020096;28;20300;-83
2021/04/28 11:27:52;;;;;;;6.13;3.17;;;25.80;20.20;;;;;;5019778;28;20585;-85
2021/04/28 11:30:37;;;;;;;7.70;3.78;;;25.60;21.80;;;;;;5019986;28;20248;-83
2021/04/28 11:33:16;;;;;;;10.05;4.35;;;26.10;19.90;;;;;;5019564;28;20061;-84
2021/04/28 11:35:44;;;;;;;7.85;3.78;;;24.60;22.10;;;;;;5037506;28;20060;-83
2021/04/28 11:38:13;;;;;;;8.87;4.10;;;25.30;21.50;;;;;;5035463;28;20053;-84
2021/04/28 11:40:59;;;;;;;9.97;3.90;;;26.20;20.30;;;;;;5023012;28;20026;-83
2021/04/28 11:43:30;;;;;;;11.15;4.38;;;25.60;21.50;;;;;;5014978;28;20053;-84
2021/04/28 11:46:02;;;;;;;;;;;28.10;19.20;;;;;;5033385;28;20054;-84
2021/04/28 11:48:31;;;;;;;7.32;3.75;;;30.60;17.20;;;;;;5025077;28;19921;-82
2021/04/28 11:51:00;;;;;;;5.68;2.95;;;29.40;17.80;;;;;;5023303;28;20049;-83
2021/04/28 11:53:30;;;;;;;6.15;3.08;;;29.80;17.70;;;;;;5023792;28;20037;-81
2021/04/28 11:55:59;;;;;;;5.20;2.40;;;30.60;16.40;;;;;;5026819;28;20064;-84
2021/04/28 11:58:29;;;;;;;7.43;3.70;;;32.50;16.70;;;;;;5021281;28;20041;-83
2021/04/28 12:01:07;;;;;;;8.75;3.90;;;33.20;14.50;;;;;;5020965;28;20050;-82
2021/04/28 12:03:55;;;;;;;7.32;3.95;;;32.40;14.50;;;;;;5023589;28;20344;-84
2021/04/28 12:06:43;;;;;;;6.47;3.20;;;31.00;15.50;;;;;;5017970;28;20296;-82
2021/04/28 12:09:14;;;;;;;6.68;3.60;;;32.90;15.10;;;;;;5017569;28;20124;-84
2021/04/28 12:11:44;;;;;;;5.88;3.25;;;31.30;15.60;;;;;;5021306;28;20053;-83
2021/04/28 12:14:11;;;;;;;7.65;3.55;;;30.90;15.80;;;;;;5022932;28;20050;-83
2021/04/28 12:16:52;;;;;;;8.85;5.07;;;29.60;17.20;;;;;;5021672;28;20045;-82
2021/04/28 12:19:19;;;;;;;5.80;3.38;;;29.30;17.60;;;;;;5018897;28;20060;-83
2021/04/28 12:21:57;;;;;;;7.97;3.20;;;30.60;17.30;;;;;;5022295;28;20046;-82
2021/04/28 12:24:29;;;;;;;8.35;3.85;;;32.10;15.50;;;;;;5021541;28;21488;-82
2021/04/28 12:27:06;;;;;;;9.32;3.97;;;30.60;16.60;;;;;;5014729;28;20171;-85
2021/04/28 12:29:33;;;;;;;6.40;3.25;;;31.10;16.10;;;;;;5024730;28;21019;-82
2021/04/28 12:32:00;;;;;;;12.07;5.20;;;29.60;17.00;;;;;;5022943;28;20037;-82
2021/04/28 12:34:29;;;;;;;;;;;27.90;19.10;;;;;;5022327;28;20532;-82
2021/04/28 12:37:12;;;;;;;7.18;4.25;;;28.10;19.20;;;;;;5007054;28;19917;-82
2021/04/28 12:39:40;;;;;;;8.00;4.05;;;29.30;17.70;;;;;;5039312;28;20768;-83
2021/04/28 12:42:08;;;;;;;7.57;3.35;;;29.40;17.40;;;;;;4998579;28;20112;-83
2021/04/28 12:44:36;;;;;;;7.20;3.58;;;30.00;16.80;;;;;;5022406;28;20045;-82
2021/04/28 12:47:04;;;;;;;8.37;4.17;;;31.50;15.90;;;;;;5006227;28;20067;-84
2021/04/28 12:49:31;;;;;;;7.82;3.15;;;29.10;17.70;;;;;;5024662;28;20299;-82
2021/04/28 12:52:00;;;;;;;5.47;3.25;;;25.60;20.90;;;;;;5036529;28;20264;-84
2021/04/28 12:54:29;;;;;;;6.57;3.55;;;26.70;20.30;;;;;;5035721;28;20357;-83
2021/04/28 12:56:59;;;;;;;5.63;2.95;;;29.00;18.10;;;;;;5025276;28;20053;-83
2021/04/28 12:59:27;;;;;;;8.85;3.70;;;30.70;16.70;;;;;;5024459;28;20356;-83
2021/04/28 13:02:03;;;;;;;5.72;3.08;;;28.90;17.60;;;;;;5033739;28;20194;-82
2021/04/28 13:04:30;;;;;;;6.72;3.40;;;27.60;19.00;;;;;;5024007;28;20316;-84
2021/04/28 13:07:14;;;;;;;6.65;3.47;;;26.20;20.10;;;;;;5027919;28;20104;-82
2021/04/28 13:09:41;;;;;;;5.35;2.95;;;26.20;21.10;;;;;;5022473;28;20077;-82
2021/04/28 13:12:09;;;;;;;5.95;2.83;;;26.80;20.10;;;;;;5021576;28;20296;-82
2021/04/28 13:14:51;;;;;;;9.80;3.58;;;26.00;21.30;;;;;;4995852;28;20050;-81
2021/04/28 13:17:18;;;;;;;6.10;3.45;;;25.20;22.20;;;;;;5010098;28;20045;-82